sensor_id;sensor_type;location;lat;lon;timestamp;temperature;humidity
14142;DHT22;7151;52.246;4.820;2023-05-10T00:00:12;17.60;94.60
14142;DHT22;7151;52.246;4.820;2023-05-10T00:02:38;17.60;94.60
14142;DHT22;7151;52.246;4.820;2023-05-10T00:05:04;17.50;94.60
14142;DHT22;7151;52.246;4.820;2023-05-10T00:07:30;17.50;94.60
14142;DHT22;7151;52.246;4.820;2023-05-10T00:09:56;17.50;94.60
14142;DHT22;7151;52.246;4.820;2023-05-10T00:12:21;17.50;94.50
14142;DHT22;7151;52.246;4.820;2023-05-10T00:14:47;17.50;94.50
14142;DHT22;7151;52.246;4.820;2023-05-10T00:17:12;17.50;94.50
14142;DHT22;7151;52.246;4.820;2023-05-10T00:19:38;17.40;94.50
14142;DHT22;7151;52.246;4.820;2023-05-10T00:22:04;17.40;94.50
14142;DHT22;7151;52.246;4.820;2023-05-10T00:24:29;17.40;94.80
14142;DHT22;7151;52.246;4.820;2023-05-10T00:26:55;17.40;94.50
14142;DHT22;7151;52.246;4.820;2023-05-10T00:29:20;17.40;94.40
14142;DHT22;7151;52.246;4.820;2023-05-10T00:31:46;17.40;94.40
14142;DHT22;7151;52.246;4.820;2023-05-10T00:34:11;17.30;94.40
14142;DHT22;7151;52.246;4.820;2023-05-10T00:36:37;17.30;94.40
14142;DHT22;7151;52.246;4.820;2023-05-10T00:39:03;17.30;94.40
14142;DHT22;7151;52.246;4.820;2023-05-10T00:41:29;17.30;94.40
14142;DHT22;7151;52.246;4.820;2023-05-10T00:43:57;17.30;94.30
14142;DHT22;7151;52.246;4.820;2023-05-10T00:46:23;17.30;94.40
14142;DHT22;7151;52.246;4.820;2023-05-10T00:48:49;17.20;94.30
14142;DHT22;7151;52.246;4.820;2023-05-10T00:51:14;17.20;94.30
14142;DHT22;7151;52.246;4.820;2023-05-10T00:53:40;17.20;94.30
14142;DHT22;7151;52.246;4.820;2023-05-10T00:56:06;17.20;94.30
14142;DHT22;7151;52.246;4.820;2023-05-10T00:58:32;17.20;94.30
14142;DHT22;7151;52.246;4.820;2023-05-10T01:00:58;17.20;94.30
14142;DHT22;7151;52.246;4.820;2023-05-10T01:03:25;17.20;94.30
14142;DHT22;7151;52.246;4.820;2023-05-10T01:05:51;17.20;94.40
14142;DHT22;7151;52.246;4.820;2023-05-10T01:08:17;17.10;94.30
14142;DHT22;7151;52.246;4.820;2023-05-10T01:10:43;17.10;94.30
14142;DHT22;7151;52.246;4.820;2023-05-10T01:13:09;17.10;94.30
14142;DHT22;7151;52.246;4.820;2023-05-10T01:15:35;17.10;94.30
14142;DHT22;7151;52.246;4.820;2023-05-10T01:18:02;17.10;94.40
14142;DHT22;7151;52.246;4.820;2023-05-10T01:20:35;17.10;94.40
14142;DHT22;7151;52.246;4.820;2023-05-10T01:26:07;17.10;94.40
14142;DHT22;7151;52.246;4.820;2023-05-10T01:34:43;17.10;94.50
14142;DHT22;7151;52.246;4.820;2023-05-10T01:37:15;17.00;94.40
14142;DHT22;7151;52.246;4.820;2023-05-10T01:39:48;17.00;94.50
14142;DHT22;7151;52.246;4.820;2023-05-10T01:42:19;17.00;94.50
14142;DHT22;7151;52.246;4.820;2023-05-10T01:44:58;17.00;94.50
14142;DHT22;7151;52.246;4.820;2023-05-10T01:49:55;17.00;94.60
14142;DHT22;7151;52.246;4.820;2023-05-10T01:52:37;17.00;94.60
14142;DHT22;7151;52.246;4.820;2023-05-10T01:55:13;17.00;94.60
14142;DHT22;7151;52.246;4.820;2023-05-10T01:57:40;17.00;94.60
14142;DHT22;7151;52.246;4.820;2023-05-10T02:00:09;17.00;94.60
14142;DHT22;7151;52.246;4.820;2023-05-10T02:02:40;17.00;94.60
14142;DHT22;7151;52.246;4.820;2023-05-10T02:05:08;17.00;94.60
14142;DHT22;7151;52.246;4.820;2023-05-10T02:07:36;17.00;94.60
14142;DHT22;7151;52.246;4.820;2023-05-10T02:10:06;17.10;94.60
14142;DHT22;7151;52.246;4.820;2023-05-10T02:12:36;17.10;94.60
14142;DHT22;7151;52.246;4.820;2023-05-10T02:15:05;17.10;94.60
14142;DHT22;7151;52.246;4.820;2023-05-10T02:17:32;17.10;94.60
14142;DHT22;7151;52.246;4.820;2023-05-10T02:19:59;17.10;94.60
14142;DHT22;7151;52.246;4.820;2023-05-10T02:22:27;17.10;94.70
14142;DHT22;7151;52.246;4.820;2023-05-10T02:24:55;17.10;94.70
14142;DHT22;7151;52.246;4.820;2023-05-10T02:27:24;17.10;94.70
14142;DHT22;7151;52.246;4.820;2023-05-10T02:29:51;17.10;94.70
14142;DHT22;7151;52.246;4.820;2023-05-10T02:32:17;17.10;94.70
14142;DHT22;7151;52.246;4.820;2023-05-10T02:34:44;17.10;94.70
14142;DHT22;7151;52.246;4.820;2023-05-10T02:37:13;17.10;94.70
14142;DHT22;7151;52.246;4.820;2023-05-10T02:39:40;17.10;94.70
14142;DHT22;7151;52.246;4.820;2023-05-10T02:42:11;17.00;94.60
14142;DHT22;7151;52.246;4.820;2023-05-10T02:44:41;17.10;94.70
14142;DHT22;7151;52.246;4.820;2023-05-10T02:47:07;17.00;94.70
14142;DHT22;7151;52.246;4.820;2023-05-10T02:49:33;17.10;94.70
14142;DHT22;7151;52.246;4.820;2023-05-10T02:52:01;17.00;94.70
14142;DHT22;7151;52.246;4.820;2023-05-10T02:54:33;17.00;94.70
14142;DHT22;7151;52.246;4.820;2023-05-10T02:57:00;17.00;94.70
14142;DHT22;7151;52.246;4.820;2023-05-10T02:59:28;17.00;94.70
14142;DHT22;7151;52.246;4.820;2023-05-10T03:01:53;17.00;94.80
14142;DHT22;7151;52.246;4.820;2023-05-10T03:04:19;17.00;94.80
14142;DHT22;7151;52.246;4.820;2023-05-10T03:06:45;17.00;94.80
14142;DHT22;7151;52.246;4.820;2023-05-10T03:09:12;17.00;94.80
14142;DHT22;7151;52.246;4.820;2023-05-10T03:12:45;17.00;94.80
14142;DHT22;7151;52.246;4.820;2023-05-10T03:14:59;17.00;94.80
14142;DHT22;7151;52.246;4.820;2023-05-10T03:17:31;17.00;94.80
14142;DHT22;7151;52.246;4.820;2023-05-10T03:20:08;17.00;94.80
14142;DHT22;7151;52.246;4.820;2023-05-10T03:22:47;17.00;94.80
14142;DHT22;7151;52.246;4.820;2023-05-10T03:25:16;17.00;94.80
14142;DHT22;7151;52.246;4.820;2023-05-10T03:27:43;17.00;94.80
14142;DHT22;7151;52.246;4.820;2023-05-10T03:30:12;17.00;94.80
14142;DHT22;7151;52.246;4.820;2023-05-10T03:32:38;17.00;94.90
14142;DHT22;7151;52.246;4.820;2023-05-10T03:35:08;17.00;94.90
14142;DHT22;7151;52.246;4.820;2023-05-10T03:37:34;17.00;94.90
14142;DHT22;7151;52.246;4.820;2023-05-10T03:40:00;17.00;94.90
14142;DHT22;7151;52.246;4.820;2023-05-10T03:42:26;17.00;94.80
14142;DHT22;7151;52.246;4.820;2023-05-10T03:44:51;17.00;94.90
14142;DHT22;7151;52.246;4.820;2023-05-10T03:47:17;17.00;94.90
14142;DHT22;7151;52.246;4.820;2023-05-10T03:49:42;17.00;94.90
14142;DHT22;7151;52.246;4.820;2023-05-10T03:52:08;17.00;94.80
14142;DHT22;7151;52.246;4.820;2023-05-10T03:54:34;17.00;94.90
14142;DHT22;7151;52.246;4.820;2023-05-10T03:56:59;17.00;94.80
14142;DHT22;7151;52.246;4.820;2023-05-10T03:59:26;17.00;94.80
14142;DHT22;7151;52.246;4.820;2023-05-10T04:01:51;17.00;94.80
14142;DHT22;7151;52.246;4.820;2023-05-10T04:04:17;17.00;94.80
14142;DHT22;7151;52.246;4.820;2023-05-10T04:06:44;16.90;94.70
14142;DHT22;7151;52.246;4.820;2023-05-10T04:09:10;16.90;94.70
14142;DHT22;7151;52.246;4.820;2023-05-10T04:11:36;16.90;94.70
14142;DHT22;7151;52.246;4.820;2023-05-10T04:14:01;16.90;94.70
14142;DHT22;7151;52.246;4.820;2023-05-10T04:16:27;16.90;94.60
14142;DHT22;7151;52.246;4.820;2023-05-10T04:18:52;16.90;94.60
14142;DHT22;7151;52.246;4.820;2023-05-10T04:21:18;16.90;94.90
14142;DHT22;7151;52.246;4.820;2023-05-10T04:23:44;16.80;94.60
14142;DHT22;7151;52.246;4.820;2023-05-10T04:26:09;16.80;94.60
14142;DHT22;7151;52.246;4.820;2023-05-10T04:28:35;16.80;94.60
14142;DHT22;7151;52.246;4.820;2023-05-10T04:31:05;16.80;94.90
14142;DHT22;7151;52.246;4.820;2023-05-10T04:33:31;16.80;94.60
14142;DHT22;7151;52.246;4.820;2023-05-10T04:35:57;16.80;94.60
14142;DHT22;7151;52.246;4.820;2023-05-10T04:38:23;16.80;94.60
14142;DHT22;7151;52.246;4.820;2023-05-10T04:40:48;16.80;94.60
14142;DHT22;7151;52.246;4.820;2023-05-10T04:43:14;16.80;94.60
14142;DHT22;7151;52.246;4.820;2023-05-10T04:45:40;16.80;94.60
14142;DHT22;7151;52.246;4.820;2023-05-10T04:48:05;16.80;94.60
14142;DHT22;7151;52.246;4.820;2023-05-10T04:50:31;16.70;94.60
14142;DHT22;7151;52.246;4.820;2023-05-10T04:52:57;16.70;94.60
14142;DHT22;7151;52.246;4.820;2023-05-10T04:55:23;16.70;94.60
14142;DHT22;7151;52.246;4.820;2023-05-10T04:57:48;16.70;94.60
14142;DHT22;7151;52.246;4.820;2023-05-10T05:00:14;16.70;94.60
14142;DHT22;7151;52.246;4.820;2023-05-10T05:02:44;16.80;94.70
14142;DHT22;7151;52.246;4.820;2023-05-10T05:05:11;16.80;94.70
14142;DHT22;7151;52.246;4.820;2023-05-10T05:07:36;16.80;94.70
14142;DHT22;7151;52.246;4.820;2023-05-10T05:10:07;16.80;94.70
14142;DHT22;7151;52.246;4.820;2023-05-10T05:12:34;16.80;94.60
14142;DHT22;7151;52.246;4.820;2023-05-10T05:15:00;16.80;94.70
14142;DHT22;7151;52.246;4.820;2023-05-10T05:17:25;16.80;94.70
14142;DHT22;7151;52.246;4.820;2023-05-10T05:19:51;16.80;94.70
14142;DHT22;7151;52.246;4.820;2023-05-10T05:22:17;16.80;94.70
14142;DHT22;7151;52.246;4.820;2023-05-10T05:24:42;16.80;94.70
14142;DHT22;7151;52.246;4.820;2023-05-10T05:27:08;16.80;94.60
14142;DHT22;7151;52.246;4.820;2023-05-10T05:29:34;16.80;94.60
14142;DHT22;7151;52.246;4.820;2023-05-10T05:32:00;16.80;94.60
14142;DHT22;7151;52.246;4.820;2023-05-10T05:34:25;16.80;94.60
14142;DHT22;7151;52.246;4.820;2023-05-10T05:36:51;16.80;94.60
14142;DHT22;7151;52.246;4.820;2023-05-10T05:39:17;16.80;94.70
14142;DHT22;7151;52.246;4.820;2023-05-10T05:41:42;16.80;94.70
14142;DHT22;7151;52.246;4.820;2023-05-10T05:44:08;16.80;94.70
14142;DHT22;7151;52.246;4.820;2023-05-10T05:46:33;16.80;94.70
14142;DHT22;7151;52.246;4.820;2023-05-10T05:48:59;16.80;94.70
14142;DHT22;7151;52.246;4.820;2023-05-10T05:51:24;16.80;94.70
14142;DHT22;7151;52.246;4.820;2023-05-10T05:53:50;16.80;94.70
14142;DHT22;7151;52.246;4.820;2023-05-10T05:56:16;16.80;94.70
14142;DHT22;7151;52.246;4.820;2023-05-10T05:58:42;16.80;94.80
14142;DHT22;7151;52.246;4.820;2023-05-10T06:01:09;16.80;94.80
14142;DHT22;7151;52.246;4.820;2023-05-10T06:03:34;16.90;94.80
14142;DHT22;7151;52.246;4.820;2023-05-10T06:06:00;16.90;94.80
14142;DHT22;7151;52.246;4.820;2023-05-10T06:08:25;16.90;94.80
14142;DHT22;7151;52.246;4.820;2023-05-10T06:10:51;16.90;94.80
14142;DHT22;7151;52.246;4.820;2023-05-10T06:13:16;16.90;94.90
14142;DHT22;7151;52.246;4.820;2023-05-10T06:15:42;16.90;94.80
14142;DHT22;7151;52.246;4.820;2023-05-10T06:18:08;16.90;94.80
14142;DHT22;7151;52.246;4.820;2023-05-10T06:20:33;16.90;94.90
14142;DHT22;7151;52.246;4.820;2023-05-10T06:22:59;17.00;94.90
14142;DHT22;7151;52.246;4.820;2023-05-10T06:25:24;17.00;94.90
14142;DHT22;7151;52.246;4.820;2023-05-10T06:27:50;17.00;94.80
14142;DHT22;7151;52.246;4.820;2023-05-10T06:30:16;17.00;94.90
14142;DHT22;7151;52.246;4.820;2023-05-10T06:32:41;17.00;94.80
14142;DHT22;7151;52.246;4.820;2023-05-10T06:35:09;17.00;94.80
14142;DHT22;7151;52.246;4.820;2023-05-10T06:37:34;17.00;94.90
14142;DHT22;7151;52.246;4.820;2023-05-10T06:40:00;17.00;94.90
14142;DHT22;7151;52.246;4.820;2023-05-10T06:42:26;17.00;94.90
14142;DHT22;7151;52.246;4.820;2023-05-10T06:44:52;17.00;94.90
14142;DHT22;7151;52.246;4.820;2023-05-10T06:47:18;17.10;94.90
14142;DHT22;7151;52.246;4.820;2023-05-10T06:49:43;17.10;95.00
14142;DHT22;7151;52.246;4.820;2023-05-10T06:52:09;17.10;95.00
14142;DHT22;7151;52.246;4.820;2023-05-10T06:54:35;17.10;95.00
14142;DHT22;7151;52.246;4.820;2023-05-10T06:57:00;17.10;95.00
14142;DHT22;7151;52.246;4.820;2023-05-10T06:59:28;17.20;95.00
14142;DHT22;7151;52.246;4.820;2023-05-10T07:01:53;17.20;95.00
14142;DHT22;7151;52.246;4.820;2023-05-10T07:04:19;17.20;94.90
14142;DHT22;7151;52.246;4.820;2023-05-10T07:06:45;17.20;94.90
14142;DHT22;7151;52.246;4.820;2023-05-10T07:09:11;17.20;94.90
14142;DHT22;7151;52.246;4.820;2023-05-10T07:11:37;17.10;94.90
14142;DHT22;7151;52.246;4.820;2023-05-10T07:14:02;17.20;94.90
14142;DHT22;7151;52.246;4.820;2023-05-10T07:16:28;17.30;94.90
14142;DHT22;7151;52.246;4.820;2023-05-10T07:18:54;17.20;94.80
14142;DHT22;7151;52.246;4.820;2023-05-10T07:21:19;17.20;94.80
14142;DHT22;7151;52.246;4.820;2023-05-10T07:23:45;17.20;94.80
14142;DHT22;7151;52.246;4.820;2023-05-10T07:26:11;17.30;94.80
14142;DHT22;7151;52.246;4.820;2023-05-10T07:28:36;17.30;95.10
14142;DHT22;7151;52.246;4.820;2023-05-10T07:31:03;17.30;94.80
14142;DHT22;7151;52.246;4.820;2023-05-10T07:33:28;17.30;94.90
14142;DHT22;7151;52.246;4.820;2023-05-10T07:35:54;17.30;94.90
14142;DHT22;7151;52.246;4.820;2023-05-10T07:38:20;17.30;94.90
14142;DHT22;7151;52.246;4.820;2023-05-10T07:40:45;17.30;94.80
14142;DHT22;7151;52.246;4.820;2023-05-10T07:43:11;17.30;94.80
14142;DHT22;7151;52.246;4.820;2023-05-10T07:45:36;17.30;94.80
14142;DHT22;7151;52.246;4.820;2023-05-10T07:48:02;17.30;94.90
14142;DHT22;7151;52.246;4.820;2023-05-10T07:50:28;17.40;94.90
14142;DHT22;7151;52.246;4.820;2023-05-10T07:52:54;17.40;94.90
14142;DHT22;7151;52.246;4.820;2023-05-10T07:55:20;17.40;94.80
14142;DHT22;7151;52.246;4.820;2023-05-10T07:57:46;17.40;94.80
14142;DHT22;7151;52.246;4.820;2023-05-10T08:00:13;17.40;94.80
14142;DHT22;7151;52.246;4.820;2023-05-10T08:02:41;17.40;94.80
14142;DHT22;7151;52.246;4.820;2023-05-10T08:05:07;17.40;94.80
14142;DHT22;7151;52.246;4.820;2023-05-10T08:07:33;17.50;94.80
14142;DHT22;7151;52.246;4.820;2023-05-10T08:09:59;17.50;94.80
14142;DHT22;7151;52.246;4.820;2023-05-10T08:12:24;17.50;94.80
14142;DHT22;7151;52.246;4.820;2023-05-10T08:14:50;17.50;94.80
14142;DHT22;7151;52.246;4.820;2023-05-10T08:17:15;17.60;94.80
14142;DHT22;7151;52.246;4.820;2023-05-10T08:19:41;17.60;94.70
14142;DHT22;7151;52.246;4.820;2023-05-10T08:22:06;17.60;94.70
14142;DHT22;7151;52.246;4.820;2023-05-10T08:24:32;17.60;94.60
14142;DHT22;7151;52.246;4.820;2023-05-10T08:26:59;17.70;94.70
14142;DHT22;7151;52.246;4.820;2023-05-10T08:29:26;17.70;94.70
14142;DHT22;7151;52.246;4.820;2023-05-10T08:31:51;17.70;94.70
14142;DHT22;7151;52.246;4.820;2023-05-10T08:34:17;17.70;94.70
14142;DHT22;7151;52.246;4.820;2023-05-10T08:36:42;17.70;94.60
14142;DHT22;7151;52.246;4.820;2023-05-10T08:39:08;17.80;94.60
14142;DHT22;7151;52.246;4.820;2023-05-10T08:41:36;17.80;94.60
14142;DHT22;7151;52.246;4.820;2023-05-10T08:44:04;17.80;94.60
14142;DHT22;7151;52.246;4.820;2023-05-10T08:46:31;17.80;94.60
14142;DHT22;7151;52.246;4.820;2023-05-10T08:49:02;17.90;94.50
14142;DHT22;7151;52.246;4.820;2023-05-10T08:51:31;17.90;94.40
14142;DHT22;7151;52.246;4.820;2023-05-10T08:53:59;17.90;94.40
14142;DHT22;7151;52.246;4.820;2023-05-10T08:56:25;17.90;94.40
14142;DHT22;7151;52.246;4.820;2023-05-10T08:58:51;17.90;94.40
14142;DHT22;7151;52.246;4.820;2023-05-10T09:01:18;17.90;94.40
14142;DHT22;7151;52.246;4.820;2023-05-10T09:03:46;17.90;94.30
14142;DHT22;7151;52.246;4.820;2023-05-10T09:06:13;17.90;94.30
14142;DHT22;7151;52.246;4.820;2023-05-10T09:08:39;17.90;94.30
14142;DHT22;7151;52.246;4.820;2023-05-10T09:11:05;17.90;94.30
14142;DHT22;7151;52.246;4.820;2023-05-10T09:13:31;17.90;94.20
14142;DHT22;7151;52.246;4.820;2023-05-10T09:15:58;17.90;94.20
14142;DHT22;7151;52.246;4.820;2023-05-10T09:18:23;17.90;94.20
14142;DHT22;7151;52.246;4.820;2023-05-10T09:20:49;17.90;94.20
14142;DHT22;7151;52.246;4.820;2023-05-10T09:23:15;17.90;94.20
14142;DHT22;7151;52.246;4.820;2023-05-10T09:25:43;17.90;94.20
14142;DHT22;7151;52.246;4.820;2023-05-10T09:28:09;17.90;94.20
14142;DHT22;7151;52.246;4.820;2023-05-10T09:30:35;17.90;94.20
14142;DHT22;7151;52.246;4.820;2023-05-10T09:33:01;17.90;94.20
14142;DHT22;7151;52.246;4.820;2023-05-10T09:35:29;18.00;94.20
14142;DHT22;7151;52.246;4.820;2023-05-10T09:38:03;18.00;94.20
14142;DHT22;7151;52.246;4.820;2023-05-10T09:40:30;18.00;94.20
14142;DHT22;7151;52.246;4.820;2023-05-10T09:43:08;18.00;94.20
14142;DHT22;7151;52.246;4.820;2023-05-10T09:45:35;18.00;94.10
14142;DHT22;7151;52.246;4.820;2023-05-10T09:48:02;18.00;94.10
14142;DHT22;7151;52.246;4.820;2023-05-10T09:50:29;18.10;94.00
14142;DHT22;7151;52.246;4.820;2023-05-10T09:52:58;18.10;94.00
14142;DHT22;7151;52.246;4.820;2023-05-10T09:55:44;18.10;94.00
14142;DHT22;7151;52.246;4.820;2023-05-10T09:58:11;18.10;93.90
14142;DHT22;7151;52.246;4.820;2023-05-10T10:00:39;18.20;94.00
14142;DHT22;7151;52.246;4.820;2023-05-10T10:03:05;18.20;93.90
14142;DHT22;7151;52.246;4.820;2023-05-10T10:05:35;18.20;93.90
14142;DHT22;7151;52.246;4.820;2023-05-10T10:08:03;18.20;93.80
14142;DHT22;7151;52.246;4.820;2023-05-10T10:10:31;18.20;93.80
14142;DHT22;7151;52.246;4.820;2023-05-10T10:12:57;18.20;93.80
14142;DHT22;7151;52.246;4.820;2023-05-10T10:15:23;18.20;93.80
14142;DHT22;7151;52.246;4.820;2023-05-10T10:17:50;18.20;93.80
14142;DHT22;7151;52.246;4.820;2023-05-10T10:20:16;18.20;93.80
14142;DHT22;7151;52.246;4.820;2023-05-10T10:22:42;18.20;93.90
14142;DHT22;7151;52.246;4.820;2023-05-10T10:25:15;18.20;93.90
14142;DHT22;7151;52.246;4.820;2023-05-10T10:30:31;18.20;94.00
14142;DHT22;7151;52.246;4.820;2023-05-10T10:35:29;18.20;94.00
14142;DHT22;7151;52.246;4.820;2023-05-10T10:37:56;18.30;94.00
14142;DHT22;7151;52.246;4.820;2023-05-10T10:40:25;18.30;94.10
14142;DHT22;7151;52.246;4.820;2023-05-10T10:42:52;18.30;94.20
14142;DHT22;7151;52.246;4.820;2023-05-10T10:45:19;18.40;94.20
14142;DHT22;7151;52.246;4.820;2023-05-10T10:47:45;18.40;94.10
14142;DHT22;7151;52.246;4.820;2023-05-10T10:50:11;18.40;94.10
14142;DHT22;7151;52.246;4.820;2023-05-10T10:52:45;18.40;94.00
14142;DHT22;7151;52.246;4.820;2023-05-10T10:57:57;18.40;93.90
14142;DHT22;7151;52.246;4.820;2023-05-10T11:00:37;18.50;94.00
14142;DHT22;7151;52.246;4.820;2023-05-10T11:03:11;18.50;93.90
14142;DHT22;7151;52.246;4.820;2023-05-10T11:05:45;18.50;94.20
14142;DHT22;7151;52.246;4.820;2023-05-10T11:08:29;18.50;93.90
14142;DHT22;7151;52.246;4.820;2023-05-10T11:15:58;18.50;93.70
14142;DHT22;7151;52.246;4.820;2023-05-10T11:18:25;18.50;93.70
14142;DHT22;7151;52.246;4.820;2023-05-10T11:23:21;18.50;93.70
14142;DHT22;7151;52.246;4.820;2023-05-10T11:25:47;18.60;93.70
14142;DHT22;7151;52.246;4.820;2023-05-10T11:28:14;18.60;93.70
14142;DHT22;7151;52.246;4.820;2023-05-10T11:30:41;18.60;93.80
14142;DHT22;7151;52.246;4.820;2023-05-10T11:33:07;18.60;93.70
14142;DHT22;7151;52.246;4.820;2023-05-10T11:35:40;18.60;93.70
14142;DHT22;7151;52.246;4.820;2023-05-10T11:38:10;18.60;93.60
14142;DHT22;7151;52.246;4.820;2023-05-10T11:40:36;18.60;93.60
14142;DHT22;7151;52.246;4.820;2023-05-10T11:43:03;18.60;93.90
14142;DHT22;7151;52.246;4.820;2023-05-10T11:45:32;18.60;93.60
14142;DHT22;7151;52.246;4.820;2023-05-10T11:47:59;18.60;93.60
14142;DHT22;7151;52.246;4.820;2023-05-10T11:50:25;18.60;93.60
14142;DHT22;7151;52.246;4.820;2023-05-10T11:52:55;18.60;93.50
14142;DHT22;7151;52.246;4.820;2023-05-10T11:55:22;18.50;93.50
14142;DHT22;7151;52.246;4.820;2023-05-10T11:57:52;18.60;93.50
14142;DHT22;7151;52.246;4.820;2023-05-10T12:00:18;18.50;93.50
14142;DHT22;7151;52.246;4.820;2023-05-10T12:02:43;18.50;93.60
14142;DHT22;7151;52.246;4.820;2023-05-10T12:05:09;18.60;93.60
14142;DHT22;7151;52.246;4.820;2023-05-10T12:07:35;18.50;93.90
14142;DHT22;7151;52.246;4.820;2023-05-10T12:10:12;18.50;93.60
14142;DHT22;7151;52.246;4.820;2023-05-10T12:12:43;18.60;93.70
14142;DHT22;7151;52.246;4.820;2023-05-10T12:15:23;18.50;93.70
14142;DHT22;7151;52.246;4.820;2023-05-10T12:17:50;18.60;93.90
14142;DHT22;7151;52.246;4.820;2023-05-10T12:20:20;18.60;93.90
14142;DHT22;7151;52.246;4.820;2023-05-10T12:22:55;18.60;93.80
14142;DHT22;7151;52.246;4.820;2023-05-10T12:25:22;18.70;93.90
14142;DHT22;7151;52.246;4.820;2023-05-10T12:27:53;18.70;93.80
14142;DHT22;7151;52.246;4.820;2023-05-10T12:30:22;18.70;93.80
14142;DHT22;7151;52.246;4.820;2023-05-10T12:32:48;18.80;93.80
14142;DHT22;7151;52.246;4.820;2023-05-10T12:35:14;18.80;93.80
14142;DHT22;7151;52.246;4.820;2023-05-10T12:37:42;18.90;93.80
14142;DHT22;7151;52.246;4.820;2023-05-10T12:40:09;18.90;93.80
14142;DHT22;7151;52.246;4.820;2023-05-10T12:42:36;18.90;93.70
14142;DHT22;7151;52.246;4.820;2023-05-10T12:45:03;19.00;93.70
14142;DHT22;7151;52.246;4.820;2023-05-10T12:47:29;19.00;93.70
14142;DHT22;7151;52.246;4.820;2023-05-10T12:49:55;19.00;93.60
14142;DHT22;7151;52.246;4.820;2023-05-10T12:52:21;19.10;93.60
14142;DHT22;7151;52.246;4.820;2023-05-10T12:54:46;19.10;93.50
14142;DHT22;7151;52.246;4.820;2023-05-10T12:57:13;19.10;93.30
14142;DHT22;7151;52.246;4.820;2023-05-10T12:59:38;19.10;93.30
14142;DHT22;7151;52.246;4.820;2023-05-10T13:02:05;19.10;93.20
14142;DHT22;7151;52.246;4.820;2023-05-10T13:04:31;19.10;93.10
14142;DHT22;7151;52.246;4.820;2023-05-10T13:06:57;19.10;93.00
14142;DHT22;7151;52.246;4.820;2023-05-10T13:09:24;19.10;93.10
14142;DHT22;7151;52.246;4.820;2023-05-10T13:11:50;19.10;93.00
14142;DHT22;7151;52.246;4.820;2023-05-10T13:14:18;19.10;93.00
14142;DHT22;7151;52.246;4.820;2023-05-10T13:16:46;19.10;93.10
14142;DHT22;7151;52.246;4.820;2023-05-10T13:19:12;19.00;93.00
14142;DHT22;7151;52.246;4.820;2023-05-10T13:21:37;19.00;93.00
14142;DHT22;7151;52.246;4.820;2023-05-10T13:24:03;19.00;93.00
14142;DHT22;7151;52.246;4.820;2023-05-10T13:26:29;19.00;92.90
14142;DHT22;7151;52.246;4.820;2023-05-10T13:28:55;19.00;92.90
14142;DHT22;7151;52.246;4.820;2023-05-10T13:31:21;19.00;92.90
14142;DHT22;7151;52.246;4.820;2023-05-10T13:33:46;19.00;92.90
14142;DHT22;7151;52.246;4.820;2023-05-10T13:36:12;18.90;92.90
14142;DHT22;7151;52.246;4.820;2023-05-10T13:38:37;18.90;92.90
14142;DHT22;7151;52.246;4.820;2023-05-10T13:41:03;18.90;93.20
14142;DHT22;7151;52.246;4.820;2023-05-10T13:43:29;18.90;92.90
14142;DHT22;7151;52.246;4.820;2023-05-10T13:45:55;18.90;92.90
14142;DHT22;7151;52.246;4.820;2023-05-10T13:48:20;18.90;92.90
14142;DHT22;7151;52.246;4.820;2023-05-10T13:50:46;18.90;92.90
14142;DHT22;7151;52.246;4.820;2023-05-10T13:53:12;18.90;92.90
14142;DHT22;7151;52.246;4.820;2023-05-10T13:55:38;18.90;92.90
14142;DHT22;7151;52.246;4.820;2023-05-10T13:58:03;18.90;92.90
14142;DHT22;7151;52.246;4.820;2023-05-10T14:00:29;18.90;93.00
14142;DHT22;7151;52.246;4.820;2023-05-10T14:02:54;18.90;93.00
14142;DHT22;7151;52.246;4.820;2023-05-10T14:05:20;18.90;93.00
14142;DHT22;7151;52.246;4.820;2023-05-10T14:07:46;18.90;93.00
14142;DHT22;7151;52.246;4.820;2023-05-10T14:10:12;18.90;93.00
14142;DHT22;7151;52.246;4.820;2023-05-10T14:12:37;18.90;93.00
14142;DHT22;7151;52.246;4.820;2023-05-10T14:15:03;18.90;92.90
14142;DHT22;7151;52.246;4.820;2023-05-10T14:17:31;19.00;93.00
14142;DHT22;7151;52.246;4.820;2023-05-10T14:19:57;19.00;93.00
14142;DHT22;7151;52.246;4.820;2023-05-10T14:22:23;19.00;93.00
14142;DHT22;7151;52.246;4.820;2023-05-10T14:24:49;19.10;93.00
14142;DHT22;7151;52.246;4.820;2023-05-10T14:27:14;19.20;93.00
14142;DHT22;7151;52.246;4.820;2023-05-10T14:29:40;19.20;92.90
14142;DHT22;7151;52.246;4.820;2023-05-10T14:32:06;19.30;92.80
14142;DHT22;7151;52.246;4.820;2023-05-10T14:34:31;19.30;92.70
14142;DHT22;7151;52.246;4.820;2023-05-10T14:36:57;19.30;92.60
14142;DHT22;7151;52.246;4.820;2023-05-10T14:39:23;19.30;92.50
14142;DHT22;7151;52.246;4.820;2023-05-10T14:41:49;19.30;92.40
14142;DHT22;7151;52.246;4.820;2023-05-10T14:44:16;19.30;92.50
14142;DHT22;7151;52.246;4.820;2023-05-10T14:46:42;19.30;92.60
14142;DHT22;7151;52.246;4.820;2023-05-10T14:49:07;19.40;92.70
14142;DHT22;7151;52.246;4.820;2023-05-10T14:51:33;19.40;92.60
14142;DHT22;7151;52.246;4.820;2023-05-10T14:53:59;19.50;92.60
14142;DHT22;7151;52.246;4.820;2023-05-10T14:56:24;19.50;92.60
14142;DHT22;7151;52.246;4.820;2023-05-10T14:58:51;19.50;92.50
14142;DHT22;7151;52.246;4.820;2023-05-10T15:01:17;19.60;92.40
14142;DHT22;7151;52.246;4.820;2023-05-10T15:03:42;19.60;92.40
14142;DHT22;7151;52.246;4.820;2023-05-10T15:06:08;19.60;92.40
14142;DHT22;7151;52.246;4.820;2023-05-10T15:08:34;19.70;92.30
14142;DHT22;7151;52.246;4.820;2023-05-10T15:11:00;19.70;92.20
14142;DHT22;7151;52.246;4.820;2023-05-10T15:13:25;19.70;92.20
14142;DHT22;7151;52.246;4.820;2023-05-10T15:15:51;19.70;92.10
14142;DHT22;7151;52.246;4.820;2023-05-10T15:18:17;19.70;92.00
14142;DHT22;7151;52.246;4.820;2023-05-10T15:20:42;19.70;92.00
14142;DHT22;7151;52.246;4.820;2023-05-10T15:23:08;19.70;92.00
14142;DHT22;7151;52.246;4.820;2023-05-10T15:25:33;19.70;92.00
14142;DHT22;7151;52.246;4.820;2023-05-10T15:28:05;19.70;92.00
14142;DHT22;7151;52.246;4.820;2023-05-10T15:30:30;19.70;91.90
14142;DHT22;7151;52.246;4.820;2023-05-10T15:32:56;19.70;91.90
14142;DHT22;7151;52.246;4.820;2023-05-10T15:35:22;19.60;91.90
14142;DHT22;7151;52.246;4.820;2023-05-10T15:37:48;19.60;91.90
14142;DHT22;7151;52.246;4.820;2023-05-10T15:40:14;19.60;91.90
14142;DHT22;7151;52.246;4.820;2023-05-10T15:42:39;19.60;91.90
14142;DHT22;7151;52.246;4.820;2023-05-10T15:45:05;19.60;91.90
14142;DHT22;7151;52.246;4.820;2023-05-10T15:47:31;19.50;91.90
14142;DHT22;7151;52.246;4.820;2023-05-10T15:49:57;19.60;91.90
14142;DHT22;7151;52.246;4.820;2023-05-10T15:52:22;19.60;91.90
14142;DHT22;7151;52.246;4.820;2023-05-10T15:54:49;19.50;91.90
14142;DHT22;7151;52.246;4.820;2023-05-10T15:57:15;19.50;91.90
14142;DHT22;7151;52.246;4.820;2023-05-10T15:59:41;19.50;91.80
14142;DHT22;7151;52.246;4.820;2023-05-10T16:02:08;19.50;91.80
14142;DHT22;7151;52.246;4.820;2023-05-10T16:04:35;19.50;91.80
14142;DHT22;7151;52.246;4.820;2023-05-10T16:07:01;19.50;91.80
14142;DHT22;7151;52.246;4.820;2023-05-10T16:09:26;19.50;91.80